createdAt,value
2022-08-03T00:01:44.487Z,99591.00
2022-08-03T00:04:12.511Z,99583.19
2022-08-03T00:06:39.850Z,99591.47
2022-08-03T00:09:08.135Z,99464.56
2022-08-03T00:11:35.852Z,99531.66
2022-08-03T00:14:04.658Z,99593.75
2022-08-03T00:16:32.222Z,99580.25
2022-08-03T00:19:00.618Z,99583.41
2022-08-03T00:21:29.295Z,99589.75
2022-08-03T00:23:57.284Z,99575.50
2022-08-03T00:26:24.551Z,99519.97
2022-08-03T00:28:51.986Z,99587.44
2022-08-03T00:31:25.538Z,99575.38
2022-08-03T00:34:07.463Z,99570.63
2022-08-03T00:36:36.062Z,99579.53
2022-08-03T00:39:03.593Z,99592.94
2022-08-03T00:41:30.971Z,99592.22
2022-08-03T00:43:58.465Z,99557.47
2022-08-03T00:46:25.769Z,99583.06
2022-08-03T00:48:54.015Z,99563.47
2022-08-03T00:51:22.943Z,99520.41
2022-08-03T00:53:51.205Z,99552.72
2022-08-03T00:56:18.925Z,99578.47
2022-08-03T00:58:47.262Z,99571.03
2022-08-03T01:01:15.541Z,99564.69
2022-08-03T01:03:43.246Z,99454.91
2022-08-03T01:06:36.369Z,99484.59
2022-08-03T01:09:20.105Z,99466.06
2022-08-03T01:11:59.835Z,99502.25
2022-08-03T01:14:32.769Z,99587.94
2022-08-03T01:17:11.146Z,99556.81
2022-08-03T01:20:14.745Z,99565.47
2022-08-03T01:23:28.770Z,99574.66
2022-08-03T01:26:08.489Z,99575.50
2022-08-03T01:29:01.886Z,99514.28
2022-08-03T01:31:35.746Z,99571.31
2022-08-03T01:34:26.337Z,99492.00
2022-08-03T01:36:58.203Z,99573.88
2022-08-03T01:39:27.466Z,99580.63
2022-08-03T01:41:59.527Z,99587.69
2022-08-03T01:44:31.613Z,99529.38
2022-08-03T01:47:01.125Z,99579.78
2022-08-03T01:49:32.332Z,99575.41
2022-08-03T01:52:03.998Z,99573.22
2022-08-03T01:54:43.366Z,99581.00
2022-08-03T01:57:11.889Z,99581.84
2022-08-03T01:59:40.609Z,99577.97
2022-08-03T02:02:29.075Z,99579.69
2022-08-03T02:05:00.958Z,99575.66
2022-08-03T02:07:32.469Z,99583.91
2022-08-03T02:10:02.997Z,99510.81
2022-08-03T02:12:39.018Z,99594.81
2022-08-03T02:15:08.164Z,99494.91
2022-08-03T02:17:39.349Z,99596.75
2022-08-03T02:20:11.560Z,99589.88
2022-08-03T02:22:43.355Z,99587.88
2022-08-03T02:25:14.031Z,99594.72
2022-08-03T02:28:10.930Z,99602.44
2022-08-03T02:30:44.438Z,99541.69
2022-08-03T02:33:21.151Z,99588.53
2022-08-03T02:35:51.525Z,99596.78
2022-08-03T02:38:21.633Z,99530.63
2022-08-03T02:40:51.474Z,99594.03
2022-08-03T02:43:22.167Z,99593.53
2022-08-03T02:45:51.713Z,99609.59
2022-08-03T02:48:23.705Z,99597.84
2022-08-03T02:50:57.305Z,99610.66
2022-08-03T02:53:27.805Z,99552.19
2022-08-03T02:55:57.098Z,99620.13
2022-08-03T02:58:26.105Z,99547.38
2022-08-03T03:00:55.356Z,99609.47
2022-08-03T03:03:23.627Z,99605.50
2022-08-03T03:05:57.686Z,99609.16
2022-08-03T03:08:28.823Z,99609.56
2022-08-03T03:10:59.831Z,99615.19
2022-08-03T03:13:31.623Z,99615.34
2022-08-03T03:16:04.122Z,99620.25
2022-08-03T03:18:36.298Z,99610.22
2022-08-03T03:21:04.885Z,99625.16
2022-08-03T03:23:37.146Z,99631.19
2022-08-03T03:26:05.621Z,99625.50
2022-08-03T03:28:37.281Z,99626.25
2022-08-03T03:31:06.766Z,99624.75
2022-08-03T03:33:35.217Z,99644.56
2022-08-03T03:36:03.276Z,99656.16
2022-08-03T03:38:31.093Z,99643.03
2022-08-03T03:40:58.749Z,99646.56
2022-08-03T03:43:26.253Z,99649.09
2022-08-03T03:45:55.307Z,99638.09
2022-08-03T03:48:22.849Z,99544.06
2022-08-03T03:50:50.513Z,99592.66
2022-08-03T03:53:18.576Z,99656.72
2022-08-03T03:55:59.220Z,99655.56
2022-08-03T03:58:32.326Z,99642.75
2022-08-03T04:01:00.474Z,99560.31
2022-08-03T04:03:28.272Z,99670.63
2022-08-03T04:06:14.767Z,99655.56
2022-08-03T04:09:01.093Z,99654.81
2022-08-03T04:11:35.198Z,99664.50
2022-08-03T04:14:11.290Z,99668.38
2022-08-03T04:16:44.091Z,99656.94
2022-08-03T04:19:21.039Z,99669.63
2022-08-03T04:21:57.258Z,99666.41
2022-08-03T04:24:31.091Z,99683.31
2022-08-03T04:27:01.137Z,99676.56
2022-08-03T04:29:29.729Z,99675.16
2022-08-03T04:31:59.893Z,99684.19
2022-08-03T04:34:28.373Z,99626.19
2022-08-03T04:37:00.196Z,99675.34
2022-08-03T04:39:31.389Z,99662.06
2022-08-03T04:42:08.501Z,99665.72
2022-08-03T04:44:42.086Z,99686.25
2022-08-03T04:47:09.591Z,99688.28
2022-08-03T04:49:38.361Z,99686.84
2022-08-03T04:52:08.590Z,99641.97
2022-08-03T04:55:01.411Z,99686.69
2022-08-03T04:57:31.459Z,99634.59
2022-08-03T05:00:03.178Z,99675.34
2022-08-03T05:02:35.604Z,99680.25
2022-08-03T05:05:02.891Z,99678.91
2022-08-03T05:07:35.777Z,99677.38
2022-08-03T05:10:15.729Z,99644.00
2022-08-03T05:12:45.786Z,99673.94
2022-08-03T05:15:13.796Z,99677.13
2022-08-03T05:17:41.828Z,99662.09
2022-08-03T05:20:10.134Z,99678.16
2022-08-03T05:22:37.781Z,99681.78
2022-08-03T05:25:05.587Z,99676.91
2022-08-03T05:27:32.948Z,99639.13
2022-08-03T05:30:30.968Z,99638.69
2022-08-03T05:32:47.870Z,99680.81
2022-08-03T05:35:56.195Z,99689.19
2022-08-03T05:38:03.844Z,99699.31
2022-08-03T05:40:31.417Z,99710.31
2022-08-03T05:43:00.110Z,99683.34
2022-08-03T05:45:28.552Z,99698.53
2022-08-03T05:47:56.450Z,99697.91
2022-08-03T05:50:24.104Z,99648.53
2022-08-03T05:52:51.728Z,99611.66
2022-08-03T05:55:19.343Z,99697.94
2022-08-03T05:57:49.311Z,99692.41
2022-08-03T06:00:17.538Z,99694.69
2022-08-03T06:02:46.230Z,99694.88
2022-08-03T06:05:13.664Z,99703.06
2022-08-03T06:07:41.294Z,99692.28
2022-08-03T06:10:37.242Z,99692.19
2022-08-03T06:12:56.723Z,99687.41
2022-08-03T06:15:24.024Z,99664.75
2022-08-03T06:17:52.599Z,99689.72
2022-08-03T06:20:21.415Z,99646.25
2022-08-03T06:23:00.119Z,99655.31
2022-08-03T06:25:29.393Z,99693.03
2022-08-03T06:27:56.950Z,99680.28
2022-08-03T06:30:24.359Z,99695.34
2022-08-03T06:32:52.562Z,99694.19
2022-08-03T06:35:20.515Z,99701.50
2022-08-03T06:37:52.727Z,99636.81
2022-08-03T06:40:31.600Z,99705.91
2022-08-03T06:43:01.642Z,99600.06
2022-08-03T06:45:31.918Z,99686.13
2022-08-03T06:48:05.667Z,99690.22
2022-08-03T06:50:34.333Z,99678.88
2022-08-03T06:53:02.483Z,99689.09
2022-08-03T06:55:30.690Z,99693.97
2022-08-03T06:57:59.850Z,99689.13
2022-08-03T07:00:31.692Z,99694.91
2022-08-03T07:02:59.087Z,99685.78
2022-08-03T07:05:26.424Z,99681.81
2022-08-03T07:07:59.550Z,99685.09
2022-08-03T07:10:27.877Z,99686.41
2022-08-03T07:12:56.578Z,99653.31
2022-08-03T07:15:54.304Z,99689.38
2022-08-03T07:18:12.984Z,99588.75
2022-08-03T07:20:59.015Z,99676.81
2022-08-03T07:23:26.728Z,99695.00
2022-08-03T07:25:53.975Z,99689.03
2022-08-03T07:28:21.646Z,99701.94
2022-08-03T07:30:49.150Z,99698.75
2022-08-03T07:33:16.485Z,99685.34
2022-08-03T07:35:43.964Z,99649.88
2022-08-03T07:38:11.404Z,99569.78
2022-08-03T07:40:44.446Z,99692.63
2022-08-03T07:43:13.836Z,99703.59
2022-08-03T07:45:41.515Z,99702.66
2022-08-03T07:48:12.087Z,99695.06
2022-08-03T07:50:40.883Z,99706.91
2022-08-03T07:53:08.405Z,99684.66
2022-08-03T07:55:35.721Z,99703.19
2022-08-03T07:58:05.619Z,99709.22
2022-08-03T08:00:34.180Z,99712.84
2022-08-03T08:03:02.210Z,99699.84
2022-08-03T08:05:30.151Z,99662.38
2022-08-03T08:07:57.494Z,99708.53
2022-08-03T08:10:24.936Z,99631.81
2022-08-03T08:12:52.701Z,99698.66
2022-08-03T08:15:20.185Z,99687.06
2022-08-03T08:17:49.170Z,99700.34
2022-08-03T08:20:27.713Z,99693.03
2022-08-03T08:22:58.334Z,99674.09
2022-08-03T08:25:30.922Z,99686.91
2022-08-03T08:28:22.437Z,99543.19
2022-08-03T08:30:47.039Z,99648.00
2022-08-03T08:33:22.490Z,99638.56
2022-08-03T08:35:53.481Z,99673.28
2022-08-03T08:38:21.599Z,99685.28
2022-08-03T08:40:50.368Z,99595.22
2022-08-03T08:43:18.038Z,99680.69
2022-08-03T08:45:46.193Z,99603.97
2022-08-03T08:48:14.723Z,99678.91
2022-08-03T08:50:42.906Z,99691.44
2022-08-03T08:53:18.104Z,99585.56
2022-08-03T08:55:58.715Z,99618.22
2022-08-03T08:58:29.853Z,99603.44
2022-08-03T09:00:57.636Z,99682.84
2022-08-03T09:03:29.538Z,99695.63
2022-08-03T09:06:00.906Z,99687.97
2022-08-03T09:08:30.428Z,99649.19
2022-08-03T09:10:58.421Z,99676.81
2022-08-03T09:13:26.569Z,99675.09
2022-08-03T09:16:21.366Z,99670.03
2022-08-03T09:18:54.621Z,99648.09
2022-08-03T09:21:33.229Z,99682.28
2022-08-03T09:24:05.914Z,99685.50
2022-08-03T09:26:36.646Z,99624.50
2022-08-03T09:29:16.787Z,99693.22
2022-08-03T09:31:46.642Z,99689.59
2022-08-03T09:34:18.481Z,99695.88
2022-08-03T09:36:50.809Z,99671.94
2022-08-03T09:39:28.633Z,99689.00
2022-08-03T09:42:09.607Z,99690.28
2022-08-03T09:44:51.021Z,99679.06
2022-08-03T09:47:29.894Z,99688.72
2022-08-03T09:50:08.546Z,99688.91
2022-08-03T09:52:52.122Z,99680.44
2022-08-03T09:56:33.346Z,99626.75
2022-08-03T09:58:14.488Z,99681.19
2022-08-03T10:00:57.221Z,99683.31
2022-08-03T10:03:26.851Z,99687.00
2022-08-03T10:05:59.309Z,99668.69
2022-08-03T10:08:27.665Z,99677.81
2022-08-03T10:10:55.383Z,99688.25
2022-08-03T10:13:23.646Z,99685.78
2022-08-03T10:16:21.351Z,99677.81
2022-08-03T10:18:38.904Z,99684.13
2022-08-03T10:21:10.860Z,99694.34
2022-08-03T10:23:39.822Z,99691.72
2022-08-03T10:26:08.377Z,99678.00
2022-08-03T10:28:45.088Z,99695.38
2022-08-03T10:31:14.437Z,99702.06
2022-08-03T10:33:51.253Z,99667.16
2022-08-03T10:36:24.133Z,99619.97
2022-08-03T10:38:53.494Z,99653.28
2022-08-03T10:41:23.518Z,99692.44
2022-08-03T10:43:57.056Z,99693.81
2022-08-03T10:46:26.610Z,99677.31
2022-08-03T10:48:54.495Z,99688.75
2022-08-03T10:51:23.026Z,99692.22
2022-08-03T10:53:55.213Z,99601.53
2022-08-03T10:56:55.189Z,99694.66
2022-08-03T10:59:47.402Z,99694.47
2022-08-03T11:02:15.817Z,99686.03
2022-08-03T11:04:47.115Z,99697.66
2022-08-03T11:07:17.916Z,99698.63
2022-08-03T11:09:48.859Z,99690.44
2022-08-03T11:12:34.204Z,99660.44
2022-08-03T11:15:07.755Z,99688.91
2022-08-03T11:17:46.484Z,99684.53
2022-08-03T11:20:50.420Z,99692.47
2022-08-03T11:24:03.966Z,99695.19
2022-08-03T11:26:27.840Z,99696.84
2022-08-03T11:29:28.152Z,99628.97
2022-08-03T11:31:55.510Z,99680.13
2022-08-03T11:34:24.761Z,99664.06
2022-08-03T11:37:28.786Z,99693.81
2022-08-03T11:39:57.433Z,99592.75
2022-08-03T11:42:25.086Z,99550.31
2022-08-03T11:44:54.595Z,99586.06
2022-08-03T11:47:24.280Z,99691.22
2022-08-03T11:49:54.286Z,99692.31
2022-08-03T11:52:27.239Z,99683.28
2022-08-03T11:54:57.043Z,99600.75
2022-08-03T11:58:58.314Z,99685.38
2022-08-03T12:00:32.336Z,99689.41
2022-08-03T12:03:04.247Z,99675.78
2022-08-03T12:05:40.654Z,99682.63
2022-08-03T12:08:13.910Z,99677.16
2022-08-03T12:10:46.569Z,99582.63
2022-08-03T12:14:45.593Z,99676.00
2022-08-03T12:16:02.671Z,99675.00
2022-08-03T12:18:30.445Z,99674.00
2022-08-03T12:21:09.039Z,99658.44
2022-08-03T12:23:37.932Z,99679.06
2022-08-03T12:26:08.281Z,99662.91
2022-08-03T12:28:38.350Z,99637.47
2022-08-03T12:31:13.450Z,99667.06
2022-08-03T12:34:00.599Z,99677.03
2022-08-03T12:36:29.235Z,99672.19
2022-08-03T12:39:03.695Z,99677.63
2022-08-03T12:41:36.610Z,99673.00
2022-08-03T12:44:06.352Z,99675.72
2022-08-03T12:46:37.595Z,99683.09
2022-08-03T12:49:09.309Z,99689.19
2022-08-03T12:51:43.212Z,99681.41
2022-08-03T12:54:17.483Z,99676.91
2022-08-03T12:57:04.767Z,99684.69
2022-08-03T12:59:52.794Z,99685.13
2022-08-03T13:02:26.369Z,99673.88
2022-08-03T13:04:55.513Z,99685.88
2022-08-03T13:07:23.561Z,99611.19
2022-08-03T13:09:57.751Z,99674.84
2022-08-03T13:12:29.185Z,99693.44
2022-08-03T13:15:00.478Z,99596.88
2022-08-03T13:17:28.396Z,99694.38
2022-08-03T13:19:56.518Z,99674.88
2022-08-03T13:22:29.279Z,99688.94
2022-08-03T13:24:57.849Z,99687.34
2022-08-03T13:28:04.864Z,99692.69
2022-08-03T13:30:14.092Z,99680.16
2022-08-03T13:32:51.665Z,99687.63
2022-08-03T13:35:19.395Z,99674.75
2022-08-03T13:37:47.792Z,99683.53
2022-08-03T13:40:16.504Z,99683.22
2022-08-03T13:42:44.741Z,99665.22
2022-08-03T13:45:12.545Z,99663.22
2022-08-03T13:47:39.850Z,99668.38
2022-08-03T13:50:07.713Z,99680.34
2022-08-03T13:52:35.982Z,99685.28
2022-08-03T13:55:07.348Z,99669.72
2022-08-03T13:58:03.456Z,99678.59
2022-08-03T14:00:28.072Z,99682.50
2022-08-03T14:03:03.943Z,99674.75
2022-08-03T14:05:35.832Z,99674.16
2022-08-03T14:08:05.353Z,99679.25
2022-08-03T14:10:34.813Z,99565.66
2022-08-03T14:13:02.204Z,99676.16
2022-08-03T14:15:29.630Z,99618.41
2022-08-03T14:17:58.756Z,99676.88
2022-08-03T14:20:38.783Z,99678.59
2022-08-03T14:23:15.725Z,99682.59
2022-08-03T14:25:52.441Z,99690.94
2022-08-03T14:28:24.665Z,99689.00
2022-08-03T14:30:57.295Z,99690.63
2022-08-03T14:33:25.733Z,99690.19
2022-08-03T14:35:53.430Z,99674.41
2022-08-03T14:38:21.689Z,99688.75
2022-08-03T14:40:49.641Z,99556.97
2022-08-03T14:43:22.913Z,99679.59
2022-08-03T14:45:53.768Z,99690.97
2022-08-03T14:49:02.681Z,99692.75
2022-08-03T14:51:10.534Z,99674.53
2022-08-03T14:53:37.841Z,99660.34
2022-08-03T14:56:10.067Z,99624.25
2022-08-03T14:58:38.663Z,99693.59
2022-08-03T15:02:03.167Z,99629.06
2022-08-03T15:03:55.122Z,99685.44
2022-08-03T15:06:22.389Z,99692.28
2022-08-03T15:09:13.892Z,99693.63
2022-08-03T15:11:38.939Z,99702.44
2022-08-03T15:14:09.357Z,99606.91
2022-08-03T15:16:38.347Z,99691.69
2022-08-03T15:20:00.474Z,99693.16
2022-08-03T15:21:53.217Z,99687.59
2022-08-03T15:24:21.312Z,99585.72
2022-08-03T15:26:48.722Z,99688.19
2022-08-03T15:30:04.741Z,99682.66
2022-08-03T15:32:08.704Z,99648.22
2022-08-03T15:34:36.845Z,99673.69
2022-08-03T15:37:16.229Z,99684.56
2022-08-03T15:39:58.845Z,99688.66
2022-08-03T15:42:29.505Z,99688.34
2022-08-03T15:44:57.634Z,99701.94
2022-08-03T15:47:24.972Z,99694.16
2022-08-03T15:49:52.545Z,99703.00
2022-08-03T15:52:19.888Z,99629.75
2022-08-03T15:54:47.596Z,99674.97
2022-08-03T15:57:15.142Z,99692.59
2022-08-03T15:59:42.675Z,99700.22
2022-08-03T16:02:10.382Z,99673.66
2022-08-03T16:04:38.174Z,99616.25
2022-08-03T16:07:05.629Z,99677.44
2022-08-03T16:09:43.100Z,99688.31
2022-08-03T16:12:16.034Z,99677.31
2022-08-03T16:14:53.763Z,99687.66
2022-08-03T16:17:22.879Z,99673.94
2022-08-03T16:19:54.842Z,99693.31
2022-08-03T16:22:24.036Z,99695.53
2022-08-03T16:24:52.326Z,99669.78
2022-08-03T16:27:58.161Z,99676.06
2022-08-03T16:30:09.587Z,99592.38
2022-08-03T16:32:38.507Z,99690.00
2022-08-03T16:35:06.940Z,99617.16
2022-08-03T16:37:38.690Z,99587.84
2022-08-03T16:40:17.643Z,99697.19
2022-08-03T16:42:47.953Z,99686.84
2022-08-03T16:45:15.634Z,99687.38
2022-08-03T16:47:43.184Z,99537.34
2022-08-03T16:50:17.169Z,99686.69
2022-08-03T16:52:48.640Z,99703.00
2022-08-03T16:55:42.844Z,99620.25
2022-08-03T16:58:05.620Z,99699.28
2022-08-03T17:00:41.847Z,99690.47
2022-08-03T17:03:12.745Z,99698.25
2022-08-03T17:05:49.834Z,99699.44
2022-08-03T17:08:26.178Z,99709.81
2022-08-03T17:10:55.895Z,99709.78
2022-08-03T17:13:39.216Z,99725.03
2022-08-03T17:16:09.764Z,99718.91
2022-08-03T17:18:51.930Z,99717.34
2022-08-03T17:21:26.027Z,99718.03
2022-08-03T17:24:23.461Z,99715.25
2022-08-03T17:26:54.092Z,99713.34
2022-08-03T17:29:25.260Z,99709.25
2022-08-03T17:31:57.743Z,99739.22
2022-08-03T17:34:26.530Z,99741.59
2022-08-03T17:37:04.069Z,99730.88
2022-08-03T17:39:57.752Z,99739.31
2022-08-03T17:42:30.829Z,99562.75
2022-08-03T17:45:02.258Z,99722.47
2022-08-03T17:47:42.104Z,99746.91
2022-08-03T17:50:24.586Z,99756.53
2022-08-03T17:53:15.513Z,99660.53
2022-08-03T17:56:45.125Z,99737.47
2022-08-03T17:59:50.663Z,99746.91
2022-08-03T18:02:51.477Z,99741.81
2022-08-03T18:05:21.954Z,99751.63
2022-08-03T18:07:59.056Z,99655.78
2022-08-03T18:10:28.467Z,99736.94
2022-08-03T18:13:10.423Z,99683.22
2022-08-03T18:15:46.605Z,99660.50
2022-08-03T18:18:32.425Z,99769.41
2022-08-03T18:21:06.706Z,99764.47
2022-08-03T18:23:40.178Z,99776.00
2022-08-03T18:26:12.168Z,99785.16
2022-08-03T18:28:40.847Z,99779.72
2022-08-03T18:31:33.198Z,99786.84
2022-08-03T18:34:19.211Z,99799.69
2022-08-03T18:36:55.836Z,99787.78
2022-08-03T18:39:24.138Z,99721.25
2022-08-03T18:41:52.338Z,99800.75
2022-08-03T18:44:52.474Z,99791.34
2022-08-03T18:47:50.499Z,99805.41
2022-08-03T18:50:31.154Z,99808.75
2022-08-03T18:53:03.469Z,99820.09
2022-08-03T18:55:35.283Z,99824.97
2022-08-03T18:58:15.722Z,99817.88
2022-08-03T19:01:01.286Z,99812.69
2022-08-03T19:03:43.455Z,99820.66
2022-08-03T19:06:20.415Z,99818.28
2022-08-03T19:09:12.786Z,99824.66
2022-08-03T19:12:13.154Z,99809.84
2022-08-03T19:14:44.911Z,99686.25
2022-08-03T19:17:14.378Z,99800.41
2022-08-03T19:19:51.443Z,99822.25
2022-08-03T19:22:21.603Z,99826.13
2022-08-03T19:24:52.195Z,99823.03
2022-08-03T19:27:27.009Z,99821.34
2022-08-03T19:30:01.209Z,99821.66
2022-08-03T19:32:33.917Z,99826.53
2022-08-03T19:35:03.180Z,99819.66
2022-08-03T19:37:38.413Z,99829.06
2022-08-03T19:43:20.903Z,99654.88
2022-08-03T19:46:05.336Z,99823.66
2022-08-03T19:48:36.749Z,99829.91
2022-08-03T19:51:12.548Z,99822.94
2022-08-03T19:53:45.148Z,99812.16
2022-08-03T19:56:14.646Z,99780.16
2022-08-03T19:58:43.844Z,99700.84
2022-08-03T20:01:19.407Z,99807.09
2022-08-03T20:03:50.626Z,99817.47
2022-08-03T20:06:22.361Z,99818.09
2022-08-03T20:08:51.537Z,99808.75
2022-08-03T20:11:20.553Z,99715.56
2022-08-03T20:13:58.376Z,99824.25
2022-08-03T20:16:26.505Z,99818.72
2022-08-03T20:18:54.012Z,99821.84
2022-08-03T20:21:25.152Z,99643.09
2022-08-03T20:24:02.929Z,99799.34
2022-08-03T20:26:53.345Z,99742.84
2022-08-03T20:29:42.783Z,99823.22
2022-08-03T20:32:19.324Z,99740.47
2022-08-03T20:34:52.955Z,99842.69
2022-08-03T20:37:21.022Z,99843.41
2022-08-03T20:42:36.553Z,99852.63
2022-08-03T20:45:06.096Z,99843.84
2022-08-03T20:47:50.936Z,99857.34
2022-08-03T20:50:21.800Z,99838.09
2022-08-03T20:52:51.515Z,99849.22
2022-08-03T20:55:47.888Z,99786.69
2022-08-03T20:58:13.853Z,99838.25
2022-08-03T21:00:51.547Z,99844.78
2022-08-03T21:03:20.126Z,99853.03
2022-08-03T21:05:53.480Z,99871.63
2022-08-03T21:08:23.109Z,99871.91
2022-08-03T21:10:54.291Z,99868.78
2022-08-03T21:13:02.694Z,99822.03
2022-08-03T21:13:13.491Z,99844.69
2022-08-03T21:14:01.458Z,99874.53
2022-08-03T21:16:32.689Z,99874.53
2022-08-03T21:19:04.076Z,99860.91
2022-08-03T21:21:33.211Z,99869.00
2022-08-03T21:24:04.292Z,99866.56
2022-08-03T21:26:37.178Z,99870.84
2022-08-03T21:29:05.655Z,99856.91
2022-08-03T21:31:33.543Z,99794.50
2022-08-03T21:35:43.597Z,99865.47
2022-08-03T21:38:19.157Z,99725.75
2022-08-03T21:41:23.376Z,99836.41
2022-08-03T21:43:56.244Z,99865.97
2022-08-03T21:46:44.545Z,99846.78
2022-08-03T21:50:04.432Z,99872.31
2022-08-03T21:52:07.033Z,99858.31
2022-08-03T21:54:41.959Z,99868.09
2022-08-03T21:57:26.287Z,99862.69
2022-08-03T22:00:06.985Z,99863.03
2022-08-03T22:02:54.435Z,99767.88
2022-08-03T22:05:43.060Z,99860.03
2022-08-03T22:08:15.472Z,99861.41
2022-08-03T22:10:45.187Z,99878.16
2022-08-03T22:13:23.341Z,99877.34
2022-08-03T22:16:06.000Z,99874.94
2022-08-03T22:18:37.927Z,99871.94
2022-08-03T22:21:09.256Z,99807.44
2022-08-03T22:23:43.454Z,99863.91
2022-08-03T22:26:35.385Z,99872.84
2022-08-03T22:29:07.859Z,99875.09
2022-08-03T22:31:58.057Z,99862.25
2022-08-03T22:34:27.426Z,99880.94
2022-08-03T22:37:00.402Z,99819.41
2022-08-03T22:39:34.845Z,99887.22
2022-08-03T22:42:05.545Z,99881.38
2022-08-03T22:44:32.987Z,99900.69
2022-08-03T22:47:00.463Z,99893.38
2022-08-03T22:49:28.973Z,99878.34
2022-08-03T22:51:56.722Z,99889.97
2022-08-03T22:54:24.899Z,99896.56
2022-08-03T22:56:52.490Z,99884.28
2022-08-03T22:59:38.800Z,99885.97
2022-08-03T23:02:19.921Z,99899.06
2022-08-03T23:04:53.483Z,99893.19
2022-08-03T23:07:28.460Z,99898.84
2022-08-03T23:09:58.166Z,99878.31
2022-08-03T23:12:27.146Z,99903.88
2022-08-03T23:15:02.585Z,99871.16
2022-08-03T23:17:32.638Z,99901.41
2022-08-03T23:20:07.242Z,99894.84
2022-08-03T23:22:38.497Z,99903.63
2022-08-03T23:25:11.306Z,99896.59
2022-08-03T23:27:44.873Z,99906.34
2022-08-03T23:30:13.342Z,99897.94
2022-08-03T23:32:43.370Z,99918.44
2022-08-03T23:36:22.583Z,99921.50
2022-08-03T23:38:22.164Z,99903.19
2022-08-03T23:40:51.365Z,99911.94
2022-08-03T23:43:50.776Z,99899.13
2022-08-03T23:46:10.470Z,99895.84
2022-08-03T23:48:37.939Z,99922.34
2022-08-03T23:51:10.656Z,99906.00
2022-08-03T23:53:57.607Z,99913.41
2022-08-03T23:56:37.646Z,99917.84
2022-08-03T23:59:44.274Z,99918.31
